메인 페이지
METAR-TAF:

METAR-TAF

공항 :

상파울루 콩고냐스 공항

상파울루, 상파울루, 브라질

위도: 23-37S, 경도: 046-39W, 고도: 803m

현재 날씨관측

예보는 48분 전, 20:00시(UTC)에 발표되었습니다.
북서7kt서북서풍과 풍을 오가는
온도 25°C
습도 30%
기압 1020 hPa
시정 10km 이상
1500m 미만 상공 구름 및 적란운 없음

METAR: SBSP 192000Z 32007KT 290V350 CAVOK 25/06 Q1020

시각: 17:48 (20:48 UTC)

예보

예보는 5 시간 18분 전, 15:30시(UTC)에 발표되었습니다.
예보 대상 시간: 19일 18시부터 20일 06시까지 (UTC)
9kt
시정 10km 이상
1500m 미만 상공 구름 및 적란운 없음
전환 중
19일 20시부터 19일 22시까지 (UTC)
북북동5kt

TAF: SBSP 191530Z 1918/2006 35009KT CAVOK TX27/1918Z TN15/2005Z BECMG 1920/1922 02005KT RMK PGE

4,000개 이상의 공항 관측 자료 및 예보 (METAR 및 TAF 보고).

지도상에서 검색 가능한 기상관측소가 노란 점과 빨간 점으로 표시되어 있습니다.

기상관측소 명을 보려면 표시 위로 마우스를 이동하세요.

날씨 관측과 예보를 보려면 클릭하세요.

지도 변경 : 확대하려면 엑스 표시가 있는 녹색 버튼, 축소하려면 빼기 표시가 있는 녹색 버튼, 다음 페이지의 지도를 보려면 녹색 화살표를 클릭하세요.


METAR-TAF: